createdAt,value
2018-11-05T00:00:05.160Z,8.10
2018-11-05T00:01:05.146Z,8.24
2018-11-05T00:02:05.135Z,8.13
2018-11-05T00:03:05.130Z,8.21
2018-11-05T00:04:05.122Z,8.09
2018-11-05T00:05:05.107Z,8.24
2018-11-05T00:06:05.097Z,8.24
2018-11-05T00:07:05.087Z,8.25
2018-11-05T00:08:05.078Z,8.29
2018-11-05T00:09:05.073Z,8.27
2018-11-05T00:10:05.065Z,8.34
2018-11-05T00:11:05.056Z,8.28
2018-11-05T00:12:05.044Z,8.27
2018-11-05T00:13:05.029Z,8.34
2018-11-05T00:14:05.020Z,8.22
2018-11-05T00:15:05.010Z,8.27
2018-11-05T00:16:05.001Z,8.20
2018-11-05T00:17:04.995Z,8.21
2018-11-05T00:18:04.986Z,8.24
2018-11-05T00:19:04.971Z,8.21
2018-11-05T00:20:04.962Z,8.21
2018-11-05T00:21:04.955Z,8.20
2018-11-05T00:22:04.948Z,8.22
2018-11-05T00:23:04.936Z,8.21
2018-11-05T00:24:04.927Z,8.24
2018-11-05T00:25:04.912Z,8.20
2018-11-05T00:26:04.903Z,8.21
2018-11-05T00:27:04.895Z,8.25
2018-11-05T00:28:04.885Z,8.27
2018-11-05T00:29:04.877Z,8.32
2018-11-05T00:30:04.869Z,8.20
2018-11-05T00:31:04.858Z,8.24
2018-11-05T00:32:04.850Z,8.22
2018-11-05T00:33:04.835Z,8.22
2018-11-05T00:34:04.825Z,8.25
2018-11-05T00:35:04.821Z,8.25
2018-11-05T00:36:04.815Z,8.34
2018-11-05T00:37:04.796Z,8.28
2018-11-05T00:38:04.786Z,8.37
2018-11-05T00:39:04.778Z,8.32
2018-11-05T00:40:04.767Z,8.32
2018-11-05T00:41:04.765Z,8.39
2018-11-05T00:42:04.751Z,8.37
2018-11-05T00:43:04.741Z,8.37
2018-11-05T00:44:04.732Z,8.29
2018-11-05T00:45:04.717Z,8.31
2018-11-05T00:46:04.707Z,8.32
2018-11-05T00:47:04.698Z,8.27
2018-11-05T00:48:04.689Z,8.27
2018-11-05T00:49:04.683Z,8.22
2018-11-05T00:50:04.673Z,8.22
2018-11-05T00:51:04.660Z,8.21
2018-11-05T00:52:04.648Z,8.20
2018-11-05T00:53:04.644Z,8.20
2018-11-05T00:54:04.634Z,8.22
2018-11-05T00:55:04.624Z,8.14
2018-11-05T00:56:04.613Z,8.22
2018-11-05T00:57:04.598Z,8.13
2018-11-05T00:58:04.589Z,8.14
2018-11-05T00:59:04.579Z,8.20
2018-11-05T01:00:04.569Z,8.20
2018-11-05T01:01:04.563Z,8.13
2018-11-05T01:02:04.553Z,8.17
2018-11-05T01:03:04.545Z,8.10
2018-11-05T01:04:04.536Z,8.09
2018-11-05T01:05:04.521Z,8.13
2018-11-05T01:06:04.510Z,8.20
2018-11-05T01:07:04.508Z,8.20
2018-11-05T01:08:04.496Z,8.17
2018-11-05T01:09:04.481Z,8.10
2018-11-05T01:10:04.472Z,8.20
2018-11-05T01:11:04.461Z,8.21
2018-11-05T01:12:04.452Z,8.13
2018-11-05T01:13:04.445Z,8.13
2018-11-05T01:14:04.446Z,8.14
2018-11-05T01:15:04.428Z,8.17
2018-11-05T01:16:04.417Z,8.06
2018-11-05T01:17:04.402Z,8.13
2018-11-05T01:18:04.393Z,8.14
2018-11-05T01:19:04.383Z,8.13
2018-11-05T01:20:04.374Z,8.12
2018-11-05T01:21:04.368Z,8.14
2018-11-05T01:22:04.359Z,8.24
2018-11-05T01:23:04.345Z,8.18
2018-11-05T01:24:04.334Z,8.10
2018-11-05T01:25:04.329Z,8.09
2018-11-05T01:26:04.320Z,8.12
2018-11-05T01:27:04.314Z,8.17
2018-11-05T01:28:04.303Z,8.17
2018-11-05T01:29:04.286Z,8.09
2018-11-05T01:30:04.277Z,8.04
2018-11-05T01:31:04.268Z,8.06
2018-11-05T01:32:04.258Z,8.00
2018-11-05T01:33:04.252Z,7.96
2018-11-05T01:34:04.243Z,7.96
2018-11-05T01:35:04.232Z,7.92
2018-11-05T01:36:04.222Z,7.88
2018-11-05T01:37:04.264Z,7.89
2018-11-05T01:38:04.199Z,7.89
2018-11-05T01:39:04.193Z,7.88
2018-11-05T01:40:04.183Z,7.96
2018-11-05T01:41:04.170Z,7.92
2018-11-05T01:42:04.160Z,7.88
2018-11-05T01:43:04.149Z,7.88
2018-11-05T01:44:04.140Z,7.91
2018-11-05T01:45:04.134Z,7.86
2018-11-05T01:46:04.123Z,7.88
2018-11-05T01:47:04.115Z,7.86
2018-11-05T01:48:04.105Z,7.88
2018-11-05T01:49:04.093Z,7.89
2018-11-05T01:50:04.083Z,7.91
2018-11-05T01:51:04.070Z,7.88
2018-11-05T01:52:04.060Z,7.84
2018-11-05T01:53:04.054Z,7.85
2018-11-05T01:54:04.044Z,7.85
2018-11-05T01:55:04.030Z,7.86
2018-11-05T01:56:04.021Z,7.89
2018-11-05T01:57:04.015Z,7.86
2018-11-05T01:58:04.005Z,7.91
2018-11-05T01:59:03.996Z,7.96
2018-11-05T02:00:03.998Z,8.02
2018-11-05T02:01:03.973Z,7.91
2018-11-05T02:02:03.965Z,7.91
2018-11-05T02:03:03.953Z,8.00
2018-11-05T02:04:03.941Z,7.96
2018-11-05T02:05:03.935Z,7.92
2018-11-05T02:06:03.926Z,8.02
2018-11-05T02:07:03.916Z,7.94
2018-11-05T02:08:03.906Z,8.00
2018-11-05T02:09:03.891Z,7.99
2018-11-05T02:10:03.920Z,7.92
2018-11-05T02:11:03.877Z,7.96
2018-11-05T02:12:03.867Z,8.02
2018-11-05T02:13:03.859Z,8.02
2018-11-05T02:14:03.842Z,8.04
2018-11-05T02:15:03.835Z,8.02
2018-11-05T02:16:03.960Z,8.00
2018-11-05T02:17:03.820Z,8.03
2018-11-05T02:18:03.808Z,8.13
2018-11-05T02:19:03.797Z,8.10
2018-11-05T02:20:03.790Z,8.06
2018-11-05T02:21:03.776Z,8.12
2018-11-05T02:22:03.763Z,8.13
2018-11-05T02:23:03.754Z,8.20
2018-11-05T02:24:03.745Z,8.14
2018-11-05T02:25:03.739Z,8.17
2018-11-05T02:26:03.728Z,8.13
2018-11-05T02:27:03.747Z,8.09
2018-11-05T02:28:03.706Z,8.04
2018-11-05T02:29:03.700Z,8.12
2018-11-05T02:30:03.690Z,8.12
2018-11-05T02:31:03.681Z,8.13
2018-11-05T02:32:03.670Z,8.20
2018-11-05T02:33:03.655Z,8.10
2018-11-05T02:34:03.648Z,8.10
2018-11-05T02:35:03.636Z,8.09
2018-11-05T02:36:03.626Z,8.17
2018-11-05T02:37:03.622Z,8.13
2018-11-05T02:38:03.612Z,8.20
2018-11-05T02:39:03.602Z,8.18
2018-11-05T02:40:03.593Z,8.13
2018-11-05T02:41:03.578Z,8.17
2018-11-05T02:42:03.569Z,8.04
2018-11-05T02:43:03.563Z,8.06
2018-11-05T02:44:03.554Z,8.07
2018-11-05T02:45:03.538Z,8.03
2018-11-05T02:46:03.530Z,8.14
2018-11-05T02:47:03.520Z,8.02
2018-11-05T02:48:03.563Z,8.06
2018-11-05T02:49:03.503Z,8.13
2018-11-05T02:50:03.495Z,8.13
2018-11-05T02:51:03.483Z,8.17
2018-11-05T02:52:03.474Z,8.10
2018-11-05T02:53:03.459Z,8.07
2018-11-05T02:54:03.452Z,8.21
2018-11-05T02:55:03.439Z,8.14
2018-11-05T02:56:03.435Z,8.18
2018-11-05T02:57:03.425Z,8.17
2018-11-05T02:58:03.415Z,8.06
2018-11-05T02:59:03.401Z,8.13
2018-11-05T03:00:03.392Z,8.14
2018-11-05T03:01:03.389Z,8.17
2018-11-05T03:02:03.376Z,8.10
2018-11-05T03:03:03.411Z,8.10
2018-11-05T03:04:03.369Z,8.03
2018-11-05T03:05:03.341Z,8.02
2018-11-05T03:06:03.331Z,8.03
2018-11-05T03:07:03.321Z,8.00
2018-11-05T03:08:03.313Z,8.03
2018-11-05T03:09:03.307Z,8.07
2018-11-05T03:10:03.296Z,8.04
2018-11-05T03:11:03.287Z,8.03
2018-11-05T03:12:03.277Z,8.06
2018-11-05T03:13:03.261Z,8.10
2018-11-05T03:14:03.257Z,8.12
2018-11-05T03:15:03.280Z,8.03
2018-11-05T03:16:03.238Z,8.07
2018-11-05T03:17:03.222Z,8.06
2018-11-05T03:18:03.213Z,8.14
2018-11-05T03:19:03.205Z,8.07
2018-11-05T03:20:03.194Z,8.04
2018-11-05T03:21:03.186Z,8.04
2018-11-05T03:22:03.177Z,8.06
2018-11-05T03:23:03.164Z,8.09
2018-11-05T03:24:03.153Z,8.00
2018-11-05T03:25:03.150Z,8.07
2018-11-05T03:26:03.137Z,8.02
2018-11-05T03:27:03.129Z,8.12
2018-11-05T03:28:03.120Z,8.13
2018-11-05T03:29:03.104Z,8.02
2018-11-05T03:30:03.100Z,7.99
2018-11-05T03:31:03.090Z,7.95
2018-11-05T03:32:03.080Z,7.96
2018-11-05T03:33:03.065Z,8.00
2018-11-05T03:34:03.056Z,8.02
2018-11-05T03:35:03.050Z,7.88
2018-11-05T03:36:03.177Z,7.86
2018-11-05T03:37:03.036Z,7.89
2018-11-05T03:38:03.020Z,7.92
2018-11-05T03:39:03.011Z,7.92
2018-11-05T03:40:03.002Z,7.88
2018-11-05T03:41:02.987Z,7.85
2018-11-05T03:42:02.980Z,7.84
2018-11-05T03:43:02.968Z,7.86
2018-11-05T03:44:02.962Z,7.86
2018-11-05T03:45:02.955Z,7.89
2018-11-05T03:46:02.943Z,7.88
2018-11-05T03:47:02.929Z,7.86
2018-11-05T03:48:02.918Z,7.92
2018-11-05T03:49:02.913Z,7.86
2018-11-05T03:50:02.904Z,7.85
2018-11-05T03:51:02.892Z,7.86
2018-11-05T03:52:02.885Z,7.92
2018-11-05T03:53:02.869Z,7.86
2018-11-05T03:54:02.859Z,7.74
2018-11-05T03:55:02.849Z,7.74
2018-11-05T03:56:02.959Z,7.79
2018-11-05T03:57:02.834Z,7.73
2018-11-05T03:58:02.823Z,7.62
2018-11-05T03:59:02.818Z,7.63
2018-11-05T04:00:02.806Z,7.62
2018-11-05T04:01:02.791Z,7.69
2018-11-05T04:02:02.782Z,7.63
2018-11-05T04:03:02.838Z,7.57
2018-11-05T04:04:02.767Z,7.55
2018-11-05T04:05:02.751Z,7.66
2018-11-05T04:06:02.743Z,7.54
2018-11-05T04:07:02.732Z,7.60
2018-11-05T04:08:02.723Z,7.58
2018-11-05T04:09:02.751Z,7.58
2018-11-05T04:10:02.707Z,7.63
2018-11-05T04:11:02.697Z,7.70
2018-11-05T04:12:02.686Z,7.67
2018-11-05T04:13:02.672Z,7.73
2018-11-05T04:14:02.663Z,7.69
2018-11-05T04:15:02.653Z,7.71
2018-11-05T04:16:02.681Z,7.74
2018-11-05T04:17:02.638Z,7.73
2018-11-05T04:18:02.629Z,7.79
2018-11-05T04:19:02.615Z,7.76
2018-11-05T04:20:02.603Z,7.86
2018-11-05T04:21:02.598Z,7.69
2018-11-05T04:22:02.592Z,7.84
2018-11-05T04:23:02.579Z,7.85
2018-11-05T04:24:02.567Z,7.85
2018-11-05T04:25:02.552Z,7.82
2018-11-05T04:26:02.545Z,7.89
2018-11-05T04:27:02.535Z,7.88
2018-11-05T04:28:02.525Z,7.89
2018-11-05T04:29:02.518Z,7.86
2018-11-05T04:30:02.509Z,7.94
2018-11-05T04:31:02.499Z,7.85
2018-11-05T04:32:02.489Z,7.86
2018-11-05T04:33:02.474Z,7.89
2018-11-05T04:34:02.465Z,7.91
2018-11-05T04:35:02.461Z,7.89
2018-11-05T04:36:02.449Z,7.92
2018-11-05T04:37:02.435Z,7.88
2018-11-05T04:38:02.425Z,7.91
2018-11-05T04:39:02.416Z,7.94
2018-11-05T04:40:02.406Z,7.96
2018-11-05T04:41:02.400Z,7.92
2018-11-05T04:42:02.392Z,7.99
2018-11-05T04:43:02.382Z,7.96
2018-11-05T04:44:02.373Z,8.02
2018-11-05T04:45:02.358Z,8.03
2018-11-05T04:46:02.351Z,7.92
2018-11-05T04:47:02.338Z,7.94
2018-11-05T04:48:02.333Z,7.96
2018-11-05T04:49:02.322Z,7.95
2018-11-05T04:50:02.314Z,8.07
2018-11-05T04:51:02.299Z,8.00
2018-11-05T04:52:02.290Z,8.02
2018-11-05T04:53:02.283Z,8.00
2018-11-05T04:54:02.277Z,8.04
2018-11-05T04:55:02.270Z,8.03
2018-11-05T04:56:02.258Z,8.00
2018-11-05T04:57:02.242Z,8.13
2018-11-05T04:58:02.231Z,8.13
2018-11-05T04:59:02.223Z,8.21
2018-11-05T05:00:02.214Z,8.25
2018-11-05T05:01:02.208Z,8.28
2018-11-05T05:02:02.199Z,8.32
2018-11-05T05:03:02.190Z,8.32
2018-11-05T05:04:02.183Z,8.45
2018-11-05T05:05:02.164Z,8.57
2018-11-05T05:06:02.154Z,8.55
2018-11-05T05:07:02.149Z,8.60
2018-11-05T05:08:02.140Z,8.60
2018-11-05T05:09:02.126Z,8.60
2018-11-05T05:10:02.117Z,8.58
2018-11-05T05:11:02.108Z,8.54
2018-11-05T05:12:02.098Z,8.57
2018-11-05T05:13:02.094Z,8.61
2018-11-05T05:14:02.084Z,8.61
2018-11-05T05:15:02.073Z,8.58
2018-11-05T05:16:02.089Z,8.64
2018-11-05T05:17:02.048Z,8.58
2018-11-05T05:18:02.041Z,8.57
2018-11-05T05:19:02.029Z,8.61
2018-11-05T05:20:02.020Z,8.54
2018-11-05T05:21:02.015Z,8.58
2018-11-05T05:22:02.005Z,8.61
2018-11-05T05:23:02.228Z,8.64
2018-11-05T05:24:01.985Z,8.60
2018-11-05T05:25:01.976Z,8.61
2018-11-05T05:26:01.965Z,8.61
2018-11-05T05:27:01.957Z,8.65
2018-11-05T05:28:01.947Z,8.68
2018-11-05T05:29:01.937Z,8.68
2018-11-05T05:30:01.922Z,8.71
2018-11-05T05:31:01.913Z,8.76
2018-11-05T05:32:01.904Z,8.65
2018-11-05T05:33:02.001Z,8.65
2018-11-05T05:34:01.889Z,8.61
2018-11-05T05:35:01.880Z,8.63
2018-11-05T05:36:01.870Z,8.58
2018-11-05T05:37:01.855Z,8.55
2018-11-05T05:38:01.846Z,8.50
2018-11-05T05:39:01.841Z,8.54
2018-11-05T05:40:01.831Z,8.55
2018-11-05T05:41:01.874Z,8.40
2018-11-05T05:42:01.807Z,8.45
2018-11-05T05:43:01.796Z,8.37
2018-11-05T05:44:01.789Z,8.39
2018-11-05T05:45:01.784Z,8.34
2018-11-05T05:46:01.771Z,8.25
2018-11-05T05:47:01.763Z,8.28
2018-11-05T05:48:01.766Z,8.21
2018-11-05T05:49:01.738Z,8.14
2018-11-05T05:50:01.791Z,8.25
2018-11-05T05:51:01.721Z,8.12
2018-11-05T05:52:01.710Z,8.09
2018-11-05T05:53:01.704Z,8.10
2018-11-05T05:54:01.695Z,8.09
2018-11-05T05:55:01.680Z,8.09
2018-11-05T05:56:01.671Z,8.00
2018-11-05T05:57:01.666Z,7.96
2018-11-05T05:58:01.656Z,7.99
2018-11-05T05:59:01.645Z,7.92
2018-11-05T06:00:01.734Z,7.99
2018-11-05T06:01:01.623Z,7.88
2018-11-05T06:02:01.612Z,7.91
2018-11-05T06:03:01.602Z,7.85
2018-11-05T06:04:01.596Z,7.91
2018-11-05T06:05:01.588Z,7.81
2018-11-05T06:06:01.684Z,7.86
2018-11-05T06:07:01.568Z,7.86
2018-11-05T06:08:01.559Z,7.84
2018-11-05T06:09:01.544Z,7.85
2018-11-05T06:10:01.536Z,7.85
2018-11-05T06:11:01.529Z,7.77
2018-11-05T06:12:01.523Z,7.85
2018-11-05T06:13:01.504Z,7.89
2018-11-05T06:14:01.495Z,7.79
2018-11-05T06:15:01.485Z,7.91
2018-11-05T06:16:01.666Z,8.02
2018-11-05T06:17:01.469Z,8.12
2018-11-05T06:18:01.461Z,8.18
2018-11-05T06:19:01.450Z,8.29
2018-11-05T06:20:01.450Z,8.50
2018-11-05T06:21:01.426Z,8.45
2018-11-05T06:22:01.468Z,8.65
2018-11-05T06:23:01.409Z,8.80
2018-11-05T06:24:01.397Z,8.89
2018-11-05T06:25:01.393Z,8.98
2018-11-05T06:26:01.384Z,8.98
2018-11-05T06:27:01.369Z,9.16
2018-11-05T06:28:01.359Z,9.30
2018-11-05T06:29:01.354Z,9.35
2018-11-05T06:30:01.345Z,9.35
2018-11-05T06:31:01.337Z,9.41
2018-11-05T06:32:01.326Z,9.52
2018-11-05T06:33:01.311Z,9.55
2018-11-05T06:34:01.301Z,9.55
2018-11-05T06:35:01.294Z,9.56
2018-11-05T06:36:01.284Z,9.59
2018-11-05T06:37:01.282Z,9.63
2018-11-05T06:38:01.274Z,9.68
2018-11-05T06:39:01.260Z,9.60
2018-11-05T06:40:01.251Z,9.75
2018-11-05T06:41:01.296Z,9.75
2018-11-05T06:42:01.227Z,9.86
2018-11-05T06:43:01.222Z,9.96
2018-11-05T06:44:01.282Z,10.11
2018-11-05T06:45:01.333Z,10.13
2018-11-05T06:46:01.191Z,10.10
2018-11-05T06:47:01.181Z,10.13
2018-11-05T06:48:01.172Z,10.13
2018-11-05T06:49:01.240Z,10.11
2018-11-05T06:50:01.159Z,10.18
2018-11-05T06:51:01.150Z,10.22
2018-11-05T06:52:01.142Z,10.26
2018-11-05T06:53:01.265Z,10.44
2018-11-05T06:54:01.119Z,10.46
2018-11-05T06:55:01.108Z,10.52
2018-11-05T06:56:01.105Z,10.58
2018-11-05T06:57:01.095Z,10.72
2018-11-05T06:58:01.088Z,10.68
2018-11-05T06:59:01.105Z,10.86
2018-11-05T07:00:01.065Z,10.90
2018-11-05T07:01:01.059Z,10.88
2018-11-05T07:02:01.053Z,10.99
2018-11-05T07:03:01.050Z,11.01
2018-11-05T07:04:01.033Z,11.06
2018-11-05T07:05:01.019Z,11.12
2018-11-05T07:06:01.181Z,11.20
2018-11-05T07:07:01.003Z,11.21
2018-11-05T07:08:00.996Z,11.30
2018-11-05T07:09:00.992Z,11.33
2018-11-05T07:10:01.059Z,11.39
2018-11-05T07:11:00.973Z,11.48
2018-11-05T07:12:00.966Z,11.49
2018-11-05T07:13:00.953Z,11.49
2018-11-05T07:14:00.947Z,11.54
2018-11-05T07:15:00.939Z,11.66
2018-11-05T07:16:00.931Z,11.69
2018-11-05T07:17:00.918Z,11.75
2018-11-05T07:18:00.912Z,11.82
2018-11-05T07:19:01.094Z,11.96
2018-11-05T07:20:00.896Z,11.94
2018-11-05T07:21:00.892Z,12.12
2018-11-05T07:22:00.884Z,12.11
2018-11-05T07:23:00.881Z,12.25
2018-11-05T07:24:00.875Z,12.22
2018-11-05T07:25:00.858Z,12.29
2018-11-05T07:26:00.855Z,12.31
2018-11-05T07:27:00.842Z,12.36
2018-11-05T07:28:00.834Z,12.46
2018-11-05T07:29:00.830Z,12.55
2018-11-05T07:30:00.824Z,12.63
2018-11-05T07:31:00.810Z,12.69
2018-11-05T07:32:00.806Z,12.70
2018-11-05T07:33:00.800Z,12.70
2018-11-05T07:34:00.999Z,12.76
2018-11-05T07:35:00.792Z,12.76
2018-11-05T07:36:00.785Z,12.77
2018-11-05T07:37:00.771Z,12.88
2018-11-05T07:38:00.759Z,12.88
2018-11-05T07:39:00.757Z,12.91
2018-11-05T07:40:00.746Z,13.13
2018-11-05T07:41:00.747Z,13.13
2018-11-05T07:42:00.736Z,13.16
2018-11-05T07:43:00.729Z,13.19
2018-11-05T07:44:00.725Z,13.21
2018-11-05T07:45:00.714Z,13.19
2018-11-05T07:46:00.705Z,13.24
2018-11-05T07:47:00.703Z,13.27
2018-11-05T07:48:00.699Z,13.41
2018-11-05T07:49:00.709Z,13.48
2018-11-05T07:50:00.708Z,13.63
2018-11-05T07:51:00.673Z,13.83
2018-11-05T07:52:00.667Z,13.73
2018-11-05T07:53:00.668Z,13.81
2018-11-05T07:54:00.658Z,13.88
2018-11-05T07:55:00.653Z,13.93
2018-11-05T07:56:00.677Z,13.94
2018-11-05T07:57:00.635Z,13.88
2018-11-05T07:58:00.634Z,13.87
2018-11-05T07:59:00.623Z,13.80
2018-11-05T08:00:00.618Z,13.71
2018-11-05T08:01:00.615Z,13.61
2018-11-05T08:02:00.611Z,13.61
2018-11-05T08:03:00.675Z,13.68
2018-11-05T08:04:00.596Z,13.73
2018-11-05T08:05:00.597Z,13.73
2018-11-05T08:06:00.588Z,13.75
2018-11-05T08:07:00.583Z,13.63
2018-11-05T08:08:00.612Z,13.51
2018-11-05T08:09:00.565Z,13.71
2018-11-05T08:10:00.560Z,13.88
2018-11-05T08:11:00.553Z,14.11
2018-11-05T08:12:00.549Z,14.29
2018-11-05T08:13:00.550Z,14.29
2018-11-05T08:14:00.545Z,14.61
2018-11-05T08:15:00.535Z,14.94
2018-11-05T08:16:00.530Z,15.16
2018-11-05T08:17:00.520Z,14.94
2018-11-05T08:18:00.515Z,14.91
2018-11-05T08:19:00.515Z,14.90
2018-11-05T08:20:00.510Z,15.05
2018-11-05T08:21:00.500Z,14.69
2018-11-05T08:22:00.496Z,14.74
2018-11-05T08:23:00.492Z,14.69
2018-11-05T08:24:00.487Z,14.56
2018-11-05T08:25:00.486Z,14.64
2018-11-05T08:26:00.481Z,14.59
2018-11-05T08:27:00.477Z,14.53
2018-11-05T08:28:00.475Z,14.59
2018-11-05T08:29:00.462Z,14.54
2018-11-05T08:30:00.459Z,14.67
2018-11-05T08:31:00.453Z,14.71
2018-11-05T08:32:00.449Z,14.72
2018-11-05T08:33:00.447Z,14.75
2018-11-05T08:34:00.446Z,14.66
2018-11-05T08:35:00.434Z,14.64
2018-11-05T08:36:00.430Z,14.63
2018-11-05T08:37:00.428Z,14.42
2018-11-05T08:38:00.424Z,14.29
2018-11-05T08:39:00.420Z,14.09
2018-11-05T08:40:00.433Z,13.91
2018-11-05T08:41:00.405Z,14.04
2018-11-05T08:42:00.400Z,13.96
2018-11-05T08:43:00.395Z,13.93
2018-11-05T08:44:00.391Z,13.96
2018-11-05T08:45:00.389Z,13.96
2018-11-05T08:46:00.384Z,14.01
2018-11-05T08:47:00.426Z,14.06
2018-11-05T08:48:00.376Z,14.09
2018-11-05T08:49:00.364Z,14.04
2018-11-05T08:50:00.379Z,13.99
2018-11-05T08:51:00.654Z,14.05
2018-11-05T08:52:00.354Z,14.13
2018-11-05T08:53:00.344Z,14.20
2018-11-05T08:54:00.413Z,14.21
2018-11-05T08:55:00.338Z,14.12
2018-11-05T08:56:00.328Z,14.01
2018-11-05T08:57:00.335Z,13.88
2018-11-05T08:58:00.321Z,13.87
2018-11-05T08:59:00.316Z,13.84
2018-11-05T09:00:00.311Z,13.79
2018-11-05T09:01:00.362Z,13.66
2018-11-05T09:02:00.296Z,13.57
2018-11-05T09:03:00.290Z,13.55
2018-11-05T09:04:00.285Z,13.61
2018-11-05T09:05:00.341Z,13.54
2018-11-05T09:06:00.278Z,13.69
2018-11-05T09:07:00.268Z,13.57
2018-11-05T09:08:00.263Z,13.59
2018-11-05T09:09:00.262Z,13.59
2018-11-05T09:10:00.277Z,13.61
2018-11-05T09:11:00.713Z,13.63
2018-11-05T09:12:00.343Z,13.69
2018-11-05T09:13:00.233Z,13.66
2018-11-05T09:14:00.229Z,13.57
2018-11-05T09:15:00.223Z,13.57
2018-11-05T09:16:00.223Z,13.63
2018-11-05T09:17:00.217Z,13.73
2018-11-05T09:18:00.211Z,13.90
2018-11-05T09:19:00.206Z,13.81
2018-11-05T09:20:00.201Z,13.83
2018-11-05T09:21:00.189Z,13.88
2018-11-05T09:22:00.184Z,13.84
2018-11-05T09:23:00.183Z,13.87
2018-11-05T09:24:00.179Z,13.86
2018-11-05T09:25:00.170Z,13.88
2018-11-05T09:26:00.161Z,13.90
2018-11-05T09:27:00.155Z,13.90
2018-11-05T09:28:00.213Z,14.04
2018-11-05T09:29:00.147Z,14.05
2018-11-05T09:30:00.144Z,14.09
2018-11-05T09:31:00.138Z,14.13
2018-11-05T09:32:00.132Z,14.16
2018-11-05T09:33:00.122Z,14.31
2018-11-05T09:34:00.115Z,14.34
2018-11-05T09:35:00.110Z,14.48
2018-11-05T09:36:00.109Z,14.53
2018-11-05T09:37:00.104Z,14.38
2018-11-05T09:38:00.108Z,14.27
2018-11-05T09:39:00.090Z,14.34
2018-11-05T09:40:00.084Z,14.38
2018-11-05T09:41:00.083Z,14.30
2018-11-05T09:42:00.081Z,14.48
2018-11-05T09:43:00.199Z,14.44
2018-11-05T09:44:00.066Z,14.56
2018-11-05T09:45:00.056Z,14.54
2018-11-05T09:46:00.052Z,14.52
2018-11-05T09:47:00.049Z,14.38
2018-11-05T09:48:00.041Z,14.56
2018-11-05T09:49:00.040Z,14.54
2018-11-05T09:50:00.036Z,14.59
2018-11-05T09:51:00.030Z,14.64
2018-11-05T09:52:00.026Z,14.66
2018-11-05T09:53:00.018Z,14.75
2018-11-05T09:54:00.014Z,14.75
2018-11-05T09:55:00.009Z,14.80
2018-11-05T09:56:00.004Z,14.78
2018-11-05T09:57:00.003Z,14.90
2018-11-05T09:57:59.989Z,14.85
2018-11-05T09:58:59.984Z,14.79
2018-11-05T09:59:59.984Z,14.86
2018-11-05T10:00:59.982Z,14.74
2018-11-05T10:01:59.974Z,14.85
2018-11-05T10:03:00.168Z,14.66
2018-11-05T10:04:00.013Z,14.75
2018-11-05T10:05:00.123Z,14.67
2018-11-05T10:05:59.950Z,14.67
2018-11-05T10:06:59.945Z,14.69
2018-11-05T10:07:59.944Z,14.71
2018-11-05T10:08:59.940Z,14.66
2018-11-05T10:09:59.934Z,14.64
2018-11-05T10:10:59.981Z,14.69
2018-11-05T10:11:59.923Z,14.52
2018-11-05T10:12:59.920Z,14.48
2018-11-05T10:13:59.917Z,14.66
2018-11-05T10:14:59.916Z,14.71
2018-11-05T10:15:59.907Z,14.60
2018-11-05T10:16:59.896Z,14.71
2018-11-05T10:17:59.892Z,14.63
2018-11-05T10:18:59.887Z,14.59
2018-11-05T10:19:59.883Z,14.57
2018-11-05T10:20:59.882Z,14.36
2018-11-05T10:21:59.878Z,14.27
2018-11-05T10:22:59.876Z,14.23
2018-11-05T10:23:59.868Z,14.19
2018-11-05T10:24:59.947Z,14.26
2018-11-05T10:25:59.853Z,14.23
2018-11-05T10:26:59.854Z,14.04
2018-11-05T10:27:59.850Z,14.17
2018-11-05T10:28:59.838Z,14.20
2018-11-05T10:29:59.833Z,14.19
2018-11-05T10:30:59.829Z,14.19
2018-11-05T10:31:59.825Z,14.27
2018-11-05T10:32:59.891Z,14.29
2018-11-05T10:33:59.818Z,14.34
2018-11-05T10:34:59.813Z,14.31
2018-11-05T10:35:59.808Z,14.26
2018-11-05T10:36:59.801Z,14.27
2018-11-05T10:37:59.797Z,14.30
2018-11-05T10:38:59.788Z,14.23
2018-11-05T10:39:59.809Z,14.13
2018-11-05T10:40:59.780Z,14.35
2018-11-05T10:41:59.776Z,14.34
2018-11-05T10:42:59.768Z,14.31
2018-11-05T10:43:59.763Z,14.34
2018-11-05T10:44:59.761Z,14.45
2018-11-05T10:45:59.779Z,14.46
2018-11-05T10:46:59.752Z,14.59
2018-11-05T10:47:59.746Z,14.63
2018-11-05T10:48:59.735Z,14.64
2018-11-05T10:49:59.731Z,14.67
2018-11-05T10:50:59.794Z,14.74
2018-11-05T10:51:59.872Z,14.72
2018-11-05T10:52:59.720Z,14.82
2018-11-05T10:53:59.715Z,14.80
2018-11-05T10:54:59.710Z,14.79
2018-11-05T10:55:59.706Z,14.79
2018-11-05T10:56:59.765Z,14.74
2018-11-05T10:57:59.694Z,14.69
2018-11-05T10:58:59.690Z,14.69
2018-11-05T10:59:59.687Z,14.67
2018-11-05T11:00:59.679Z,14.71
2018-11-05T11:01:59.681Z,14.87
2018-11-05T11:02:59.666Z,14.87
2018-11-05T11:03:59.697Z,14.90
2018-11-05T11:04:59.660Z,14.91
2018-11-05T11:05:59.655Z,14.98
2018-11-05T11:06:59.650Z,15.13
2018-11-05T11:07:59.647Z,15.18
2018-11-05T11:08:59.636Z,15.28
2018-11-05T11:09:59.631Z,15.34
2018-11-05T11:10:59.628Z,15.35
2018-11-05T11:11:59.655Z,15.46
2018-11-05T11:12:59.626Z,15.48
2018-11-05T11:13:59.619Z,15.59
2018-11-05T11:14:59.619Z,15.60
2018-11-05T11:15:59.604Z,15.70
2018-11-05T11:16:59.604Z,15.74
2018-11-05T11:17:59.601Z,15.67
2018-11-05T11:18:59.594Z,15.60
2018-11-05T11:19:59.590Z,15.46
2018-11-05T11:20:59.581Z,15.31
2018-11-05T11:21:59.621Z,15.31
2018-11-05T11:22:59.573Z,15.30
2018-11-05T11:23:59.568Z,15.33
2018-11-05T11:24:59.567Z,15.40
2018-11-05T11:25:59.563Z,15.44
2018-11-05T11:26:59.563Z,15.52
2018-11-05T11:27:59.740Z,15.62
2018-11-05T11:28:59.649Z,15.64
2018-11-05T11:29:59.543Z,15.64
2018-11-05T11:30:59.542Z,15.48
2018-11-05T11:31:59.539Z,15.31
2018-11-05T11:32:59.530Z,15.03
2018-11-05T11:33:59.525Z,15.09
2018-11-05T11:34:59.520Z,15.12
2018-11-05T11:35:59.516Z,15.16
2018-11-05T11:36:59.554Z,15.18
2018-11-05T11:37:59.513Z,15.31
2018-11-05T11:38:59.507Z,15.33
2018-11-05T11:39:59.547Z,15.37
2018-11-05T11:40:59.495Z,15.46
2018-11-05T11:41:59.492Z,15.44
2018-11-05T11:42:59.484Z,15.56
2018-11-05T11:43:59.542Z,15.62
2018-11-05T11:44:59.626Z,15.56
2018-11-05T11:45:59.517Z,15.60
2018-11-05T11:46:59.466Z,15.74
2018-11-05T11:47:59.467Z,15.68
2018-11-05T11:48:59.462Z,15.67
2018-11-05T11:49:59.461Z,15.73
2018-11-05T11:50:59.454Z,15.81
2018-11-05T11:51:59.449Z,15.85
2018-11-05T11:52:59.467Z,15.74
2018-11-05T11:53:59.440Z,15.74
2018-11-05T11:54:59.460Z,15.60
2018-11-05T11:55:59.433Z,15.64
2018-11-05T11:56:59.427Z,15.68
2018-11-05T11:57:59.421Z,15.73
2018-11-05T11:58:59.416Z,15.78
2018-11-05T11:59:59.427Z,15.85
2018-11-05T12:00:59.410Z,15.84
2018-11-05T12:01:59.442Z,15.71
2018-11-05T12:02:59.400Z,15.76
2018-11-05T12:03:59.543Z,15.96
2018-11-05T12:04:59.435Z,16.01
2018-11-05T12:05:59.390Z,16.01
2018-11-05T12:06:59.387Z,15.77
2018-11-05T12:07:59.384Z,15.93
2018-11-05T12:08:59.375Z,15.86
2018-11-05T12:09:59.369Z,15.93
2018-11-05T12:10:59.366Z,15.73
2018-11-05T12:11:59.362Z,15.76
2018-11-05T12:12:59.361Z,15.76
2018-11-05T12:13:59.459Z,15.77
2018-11-05T12:14:59.572Z,15.93
2018-11-05T12:15:59.350Z,15.92
2018-11-05T12:16:59.340Z,15.93
2018-11-05T12:17:59.337Z,16.10
2018-11-05T12:18:59.337Z,15.99
2018-11-05T12:19:59.332Z,16.01
2018-11-05T12:20:59.326Z,16.03
2018-11-05T12:21:59.320Z,16.11
2018-11-05T12:22:59.316Z,16.25
2018-11-05T12:23:59.311Z,16.34
2018-11-05T12:24:59.405Z,16.29
2018-11-05T12:25:59.309Z,16.40
2018-11-05T12:26:59.305Z,16.41
2018-11-05T12:27:59.301Z,16.54
2018-11-05T12:28:59.291Z,16.54
2018-11-05T12:29:59.291Z,16.66
2018-11-05T12:30:59.283Z,16.57
2018-11-05T12:31:59.280Z,16.60
2018-11-05T12:32:59.280Z,16.52
2018-11-05T12:33:59.278Z,16.32
2018-11-05T12:34:59.271Z,16.34
2018-11-05T12:35:59.265Z,16.37
2018-11-05T12:36:59.295Z,16.37
2018-11-05T12:37:59.261Z,16.32
2018-11-05T12:38:59.258Z,16.26
2018-11-05T12:39:59.255Z,16.11
2018-11-05T12:40:59.248Z,16.03
2018-11-05T12:41:59.243Z,16.10
2018-11-05T12:42:59.238Z,16.17
2018-11-05T12:43:59.237Z,16.26
2018-11-05T12:44:59.239Z,16.14
2018-11-05T12:45:59.231Z,16.10
2018-11-05T12:46:59.226Z,16.16
2018-11-05T12:47:59.225Z,16.10
2018-11-05T12:48:59.213Z,16.08
2018-11-05T12:49:59.211Z,16.03
2018-11-05T12:50:59.210Z,16.10
2018-11-05T12:51:59.206Z,15.95
2018-11-05T12:52:59.247Z,15.88
2018-11-05T12:53:59.197Z,15.88
2018-11-05T12:54:59.188Z,15.77
2018-11-05T12:55:59.185Z,15.80
2018-11-05T12:56:59.184Z,15.78
2018-11-05T12:57:59.180Z,15.73
2018-11-05T12:58:59.175Z,15.67
2018-11-05T12:59:59.171Z,15.60
2018-11-05T13:00:59.203Z,15.64
2018-11-05T13:01:59.161Z,15.60
2018-11-05T13:02:59.152Z,15.64
2018-11-05T13:03:59.209Z,15.64
2018-11-05T13:04:59.149Z,15.64